WetterOnline ( https://www.wetteronline.de )

Wetter aktuell Langenhorn

Aktuelles Wetter: Leck (17m)

6-stündlich | Neueste Meldungen
Ortszeit Temperatur Wetter
Do, 21.11. 13:00 4.6° C bedeckt
Do, 21.11. 7:00 3.8° C bedeckt
Do, 21.11. 1:00 4.3° C bedeckt
Mi, 20.11. 19:00 5.8° C Regen
Mi, 20.11. 13:00 5.4° C bedeckt
Mi, 20.11. 7:00 4.9° C Nebel
Mi, 20.11. 1:00 6.7° C bedeckt
Di, 19.11. 19:00 7.9° C bedeckt
Ortszeit Temperatur Wetter
Do, 21.11. 17:00 6.6° C bewölkt
Do, 21.11. 16:50 6.6° C bewölkt
Do, 21.11. 16:40 6.4° C bedeckt
Do, 21.11. 16:30 6.1° C bedeckt
Do, 21.11. 16:20 6.1° C bedeckt
Do, 21.11. 16:10 6.0° C Sprühregen
Do, 21.11. 16:00 5.9° C Sprühregen
Do, 21.11. 15:30 5.6° C Sprühregen
Do, 21.11. 15:00 5.3° C bedeckt
Do, 21.11. 12:00 4.5° C bedeckt
Ortszeit Relative Feuchte Sichtweite
Do, 21.11. 13:00 89% 10 km
Do, 21.11. 7:00 96% 4.5 km
Do, 21.11. 1:00 97% 11 km
Mi, 20.11. 19:00 89% 30 km
Mi, 20.11. 13:00 97% 6 km
Mi, 20.11. 7:00 100% 0.2 km
Mi, 20.11. 1:00 92% 29 km
Di, 19.11. 19:00 87% 35 km
Ortszeit Relative Feuchte Sichtweite
Do, 21.11. 17:00 97% 3.9 km
Do, 21.11. 16:50 97% -
Do, 21.11. 16:40 98% -
Do, 21.11. 16:30 98% 2.9 km
Do, 21.11. 16:20 98% -
Do, 21.11. 16:10 98% -
Do, 21.11. 16:00 98% 3.5 km
Do, 21.11. 15:30 97% 2.8 km
Do, 21.11. 15:00 97% 3.9 km
Do, 21.11. 12:00 84% 30 km
Ortszeit Niederschlagsmenge Niederschlagsart
Do, 21.11. 13:00 0.0 l/m2 in 6 Std. -
Do, 21.11. 7:00 2 l/m2 in 12 Std. Regen
Do, 21.11. 1:00 2 l/m2 in 6 Std. Regen
Mi, 20.11. 19:00 0.9 l/m2 in 12 Std. Regen
Mi, 20.11. 13:00 0.0 l/m2 in 6 Std. -
Mi, 20.11. 7:00 0.1 l/m2 in 12 Std. -
Mi, 20.11. 1:00 0.1 l/m2 in 6 Std. Regen
Di, 19.11. 19:00 2 l/m2 in 12 Std. Regen
Ortszeit Niederschlagsmenge Niederschlagsart
Do, 21.11. 17:00 0.1 l/m2 in 1 Std. Sprühregen
Do, 21.11. 16:50 keine Meldung -
Do, 21.11. 16:40 keine Meldung -
Do, 21.11. 16:30 0.1 l/m2 in 1 Std. Schnee
Do, 21.11. 16:20 keine Meldung -
Do, 21.11. 16:10 keine Meldung -
Do, 21.11. 16:00 0.1 l/m2 in 1 Std. Regen
Do, 21.11. 15:30 0.1 l/m2 in 1 Std. -
Do, 21.11. 15:00 0.1 l/m2 in 1 Std. Sprühregen
Do, 21.11. 12:00 keine Meldung -
Ortszeit Stärke Spitze Richtung
km/h Bft. km/h Grad Sektor
Do, 21.11. 13:00 9 2 15 50° NO
Do, 21.11. 7:00 7 2 18 120° SO
Do, 21.11. 1:00 4 1 18 90° O
Mi, 20.11. 19:00 7 2 18 20° N
Mi, 20.11. 13:00 2 1 11 340° N
Mi, 20.11. 7:00 7 2 14 170° S
Mi, 20.11. 1:00 7 2 25 180° S
Di, 19.11. 19:00 15 3 41 250° W
Ortszeit Stärke Spitze Richtung
km/h Bft. km/h Grad Sektor
Do, 21.11. 17:00 14 3 22 80° O
Do, 21.11. 16:50 14 3 - 80° O
Do, 21.11. 16:40 14 3 - 80° O
Do, 21.11. 16:30 14 3 22 70° O
Do, 21.11. 16:20 14 3 - 70° O
Do, 21.11. 16:10 17 3 - 60° NO
Do, 21.11. 16:00 17 3 24 70° O
Do, 21.11. 15:30 15 3 24 70° O
Do, 21.11. 15:00 18 3 25 60° NO
Do, 21.11. 12:00 11 2 14 60° NO
Ortszeit Untergrenze Bedeckung Gattung
total tief tief mittel hoch
Do, 21.11. 13:00 630 m 8/8 8/8 - - -
Do, 21.11. 7:00 120 m 8/8 8/8 - - -
Do, 21.11. 1:00 360 m 8/8 8/8 - - -
Mi, 20.11. 19:00 810 m 8/8 8/8 - - -
Mi, 20.11. 13:00 60 m 8/8 8/8 - - -
Mi, 20.11. 7:00 <30 m 8/8 0/8 - - -
Mi, 20.11. 1:00 1020 m 8/8 8/8 - - -
Di, 19.11. 19:00 750 m 8/8 8/8 - - -
Ortszeit Bedeckungsgrad in Achtel und Wolkenuntergrenze
Do, 21.11. 17:00 7(210m) 7(1500m)
Do, 21.11. 16:50 7(210m) 7(1500m)
Do, 21.11. 16:40 8(180m) 8(1440m)
Do, 21.11. 16:30 8(120m) 8(1470m)
Do, 21.11. 16:20 8(120m)
Do, 21.11. 16:10 8(90m)
Do, 21.11. 16:00 8(90m)
Do, 21.11. 15:30 8(90m)
Do, 21.11. 15:00 8(120m)
Do, 21.11. 12:00 8(870m)
Ortszeit Luftdruck NN (hPa) Tendenz (hPa in 3 Std.)
Do, 21.11. 13:00 1013 - 1,7
Do, 21.11. 7:00 1015 - 0,2
Do, 21.11. 1:00 1016 - 0,7
Mi, 20.11. 19:00 1017 - 1,0
Mi, 20.11. 13:00 1020 - 0,7
Mi, 20.11. 7:00 1019 + 0,1
Mi, 20.11. 1:00 1018 + 1,4
Di, 19.11. 19:00 1014 + 2,6
Ortszeit Luftdruck NN (hPa) Tendenz (hPa in 3 Std.)
Do, 21.11. 17:00 1011 - 1,7
Do, 21.11. 16:50 1011 keine Meldung
Do, 21.11. 16:40 1011 keine Meldung
Do, 21.11. 16:30 1011 - 1,9
Do, 21.11. 16:20 1011 keine Meldung
Do, 21.11. 16:10 1011 keine Meldung
Do, 21.11. 16:00 1011 - 2,2
Do, 21.11. 15:30 1011 - 2,3
Do, 21.11. 15:00 1011 - 2,5
Do, 21.11. 12:00 1014 - 1,2
Ortszeit Schneehöhe (cm)
Do, 21.11. 13:00 0
Do, 21.11. 7:00 0
Do, 21.11. 1:00 0
Mi, 20.11. 19:00 0
Mi, 20.11. 13:00 0
Mi, 20.11. 7:00 0
Mi, 20.11. 1:00 0
Di, 19.11. 19:00 0
Ortszeit Schneehöhe (cm)
Do, 21.11. 17:00 0
Do, 21.11. 16:50 0
Do, 21.11. 16:40 0
Do, 21.11. 16:30 0
Do, 21.11. 16:20 0
Do, 21.11. 16:10 0
Do, 21.11. 16:00 0
Do, 21.11. 15:30 0
Do, 21.11. 15:00 0
Do, 21.11. 12:00 -
Link zu dieser Seite / Seite empfehlen

Das Wetter in ...